Time;durP1;ratioP1;P1;durP2;ratioP2;P2;SDS_P1;SDS_P2;PMS_P1;PMS_P2;Temp;Humidity;BMP_temperature;BMP_pressure;BME280_temperature;BME280_humidity;BME280_pressure;Samples;Min_cycle;Max_cycle;Signal;HPM_P1;HPM_P2
2022/08/20 00:00:46;;;;;;;10.23;5.13;;;19.60;99.90;;;;;;5019771;28;20041;-60
2022/08/20 00:03:20;;;;;;;14.48;5.75;;;19.60;99.90;;;;;;5020312;28;20144;-60
2022/08/20 00:05:51;;;;;;;6.43;4.55;;;19.60;99.90;;;;;;5036054;28;20046;-61
2022/08/20 00:08:18;;;;;;;10.38;4.65;;;19.60;99.90;;;;;;5020809;28;20060;-60
2022/08/20 00:10:47;;;;;;;11.68;5.05;;;19.60;99.90;;;;;;5024728;28;20133;-60
2022/08/20 00:13:16;;;;;;;13.35;4.85;;;19.50;99.90;;;;;;5022140;28;20495;-59
2022/08/20 00:15:42;;;;;;;7.68;4.70;;;19.50;99.90;;;;;;5038647;28;20092;-60
2022/08/20 00:18:08;;;;;;;7.53;4.55;;;19.50;99.90;;;;;;5024821;28;20049;-60
2022/08/20 00:20:38;;;;;;;13.55;4.93;;;19.50;99.90;;;;;;5023954;28;20049;-60
2022/08/20 00:23:05;;;;;;;12.07;5.43;;;19.50;99.90;;;;;;5022119;28;20355;-61
2022/08/20 00:25:31;;;;;;;13.75;5.15;;;19.50;99.90;;;;;;5023365;28;20050;-60
2022/08/20 00:27:58;;;;;;;11.88;5.18;;;19.50;99.90;;;;;;5023155;28;20095;-60
2022/08/20 00:30:25;;;;;;;11.25;5.40;;;19.40;99.90;;;;;;5024148;28;20041;-60
2022/08/20 00:32:55;;;;;;;12.00;5.20;;;19.40;99.90;;;;;;5023486;28;20507;-60
2022/08/20 00:35:27;;;;;;;10.55;4.93;;;19.40;99.90;;;;;;5021943;28;20049;-60
2022/08/20 00:37:54;;;;;;;10.68;5.20;;;19.40;99.90;;;;;;5036837;28;20041;-60
2022/08/20 00:40:24;;;;;;;9.98;4.88;;;19.40;99.90;;;;;;5023657;28;20542;-60
2022/08/20 00:42:56;;;;;;;10.00;4.78;;;19.40;99.90;;;;;;5022885;28;20041;-60
2022/08/20 00:45:25;;;;;;;13.30;4.78;;;19.40;99.90;;;;;;5024270;28;20045;-60
2022/08/20 00:47:53;;;;;;;12.18;5.00;;;19.30;99.90;;;;;;5022301;28;20073;-60
2022/08/20 00:50:24;;;;;;;9.93;4.85;;;19.40;99.90;;;;;;5022614;28;20189;-61
2022/08/20 00:52:52;;;;;;;11.27;5.10;;;19.30;99.90;;;;;;5038884;28;20515;-61
2022/08/20 00:55:23;;;;;;;9.35;4.88;;;19.30;99.90;;;;;;5022859;28;20190;-60
2022/08/20 00:57:53;;;;;;;12.57;5.05;;;19.20;99.90;;;;;;4989062;28;20082;-60
2022/08/20 01:00:27;;;;;;;12.73;5.18;;;19.20;99.90;;;;;;5023336;28;20454;-60
2022/08/20 01:02:54;;;;;;;11.38;4.90;;;19.20;99.90;;;;;;5022745;28;20041;-60
2022/08/20 01:05:22;;;;;;;9.50;5.03;;;19.10;99.90;;;;;;5021482;28;20136;-60
2022/08/20 01:07:52;;;;;;;8.73;4.80;;;19.10;99.90;;;;;;5020936;28;20045;-60
2022/08/20 01:10:23;;;;;;;8.40;4.82;;;19.10;99.90;;;;;;5022004;28;20132;-60
2022/08/20 01:12:50;;;;;;;11.57;4.43;;;19.10;99.90;;;;;;5037634;28;20492;-61
2022/08/20 01:15:20;;;;;;;9.77;4.82;;;19.00;99.90;;;;;;5023379;28;20060;-60
2022/08/20 01:17:50;;;;;;;12.30;4.80;;;19.00;99.90;;;;;;5022592;28;20052;-60
2022/08/20 01:20:20;;;;;;;13.52;5.05;;;19.00;99.90;;;;;;5018696;28;20049;-60
2022/08/20 01:23:27;;;;;;;11.82;5.25;;;19.00;99.90;;;;;;5021373;28;20488;-60
2022/08/20 01:26:16;;;;;;;8.63;4.82;;;18.90;99.90;;;;;;5021955;28;20045;-60
2022/08/20 01:29:00;;;;;;;11.45;4.95;;;18.90;99.90;;;;;;5021976;28;20224;-60
2022/08/20 01:31:32;;;;;;;17.85;5.55;;;18.90;99.90;;;;;;5023415;28;20475;-60
2022/08/20 01:34:00;;;;;;;14.98;5.70;;;18.80;99.90;;;;;;5022579;28;20045;-60
2022/08/20 01:36:37;;;;;;;8.98;5.07;;;18.80;99.90;;;;;;5020704;28;20088;-60
2022/08/20 01:39:06;;;;;;;10.57;5.20;;;18.70;99.90;;;;;;5021060;28;20407;-60
2022/08/20 01:41:50;;;;;;;11.85;5.68;;;18.70;99.90;;;;;;5021714;28;20090;-59
2022/08/20 01:44:18;;;;;;;10.35;5.32;;;18.60;99.90;;;;;;5024400;28;20123;-60
2022/08/20 01:46:46;;;;;;;13.85;5.95;;;18.60;99.90;;;;;;5021507;28;20049;-60
2022/08/20 01:49:16;;;;;;;11.23;5.40;;;18.50;99.90;;;;;;5021433;28;20049;-60
2022/08/20 01:51:42;;;;;;;8.70;5.20;;;18.50;99.90;;;;;;5021426;28;20057;-59
2022/08/20 01:54:08;;;;;;;11.52;5.30;;;18.50;99.90;;;;;;5023283;28;20046;-60
2022/08/20 01:56:48;;;;;;;11.50;5.85;;;18.40;99.90;;;;;;5020654;28;20476;-60
2022/08/20 01:59:14;;;;;;;8.57;5.05;;;18.30;99.90;;;;;;5021785;28;20073;-60
2022/08/20 02:01:40;;;;;;;9.82;5.10;;;18.30;99.90;;;;;;5021760;28;20073;-60
2022/08/20 02:04:08;;;;;;;10.85;5.68;;;18.30;99.90;;;;;;5021621;28;20045;-60
2022/08/20 02:06:39;;;;;;;15.75;6.05;;;18.20;99.90;;;;;;5022038;28;20042;-61
2022/08/20 02:09:07;;;;;;;10.85;5.50;;;18.20;99.90;;;;;;5022564;28;20059;-60
2022/08/20 02:11:34;;;;;;;10.40;5.75;;;18.20;99.90;;;;;;5020264;28;20041;-59
2022/08/20 02:14:01;;;;;;;11.82;5.90;;;18.10;99.90;;;;;;5037855;28;20120;-60
2022/08/20 02:16:35;;;;;;;10.32;5.80;;;18.10;99.90;;;;;;5020354;28;20399;-59
2022/08/20 02:19:11;;;;;;;13.18;5.50;;;18.10;99.90;;;;;;5022078;28;20037;-60
2022/08/20 02:21:42;;;;;;;16.08;5.45;;;18.10;99.90;;;;;;5022108;28;20468;-60
2022/08/20 02:24:08;;;;;;;9.50;5.45;;;18.00;99.90;;;;;;5019926;28;20065;-60
2022/08/20 02:26:36;;;;;;;12.60;5.70;;;18.00;99.90;;;;;;5021486;28;20396;-60
2022/08/20 02:29:06;;;;;;;12.40;5.05;;;18.00;99.90;;;;;;5018873;28;20115;-60
2022/08/20 02:31:34;;;;;;;11.63;5.10;;;18.00;99.90;;;;;;5020062;28;20056;-60
2022/08/20 02:34:01;;;;;;;7.50;4.25;;;17.90;99.90;;;;;;5021365;28;20034;-60
2022/08/20 02:36:27;;;;;;;10.63;4.82;;;17.90;99.90;;;;;;5021823;28;20039;-60
2022/08/20 02:38:53;;;;;;;11.27;5.18;;;17.80;99.90;;;;;;5021460;28;20041;-60
2022/08/20 02:41:21;;;;;;;9.98;4.32;;;17.80;99.90;;;;;;5003004;28;20037;-60
2022/08/20 02:43:50;;;;;;;10.48;4.00;;;17.80;99.90;;;;;;5021005;28;20069;-59
2022/08/20 02:46:18;;;;;;;11.57;4.55;;;17.80;99.90;;;;;;5020334;28;20047;-59
2022/08/20 02:48:44;;;;;;;10.40;4.80;;;17.70;99.90;;;;;;5035818;28;20048;-58
2022/08/20 02:51:10;;;;;;;9.20;4.05;;;17.70;99.90;;;;;;5021294;28;20412;-60
2022/08/20 02:53:41;;;;;;;11.68;4.40;;;17.70;99.90;;;;;;5021559;28;20053;-60
2022/08/20 02:56:08;;;;;;;9.52;3.70;;;17.60;99.90;;;;;;5018843;28;20042;-60
2022/08/20 02:58:35;;;;;;;9.77;4.20;;;17.60;99.90;;;;;;5020075;28;20038;-60
2022/08/20 03:01:05;;;;;;;16.33;3.67;;;17.60;99.90;;;;;;5003807;28;20033;-60
2022/08/20 03:03:31;;;;;;;8.98;3.63;;;17.50;99.90;;;;;;5019280;28;20534;-60
2022/08/20 03:05:58;;;;;;;12.50;4.20;;;17.50;99.90;;;;;;5021248;28;20073;-61
2022/08/20 03:08:25;;;;;;;10.48;3.97;;;17.50;99.90;;;;;;5020195;28;20052;-60
2022/08/20 03:10:51;;;;;;;8.98;4.10;;;17.50;99.90;;;;;;5020280;28;20052;-60
2022/08/20 03:13:18;;;;;;;9.45;4.10;;;17.50;99.90;;;;;;5020110;28;20053;-60
2022/08/20 03:15:47;;;;;;;9.05;3.95;;;17.50;99.90;;;;;;5020706;28;20120;-60
2022/08/20 03:18:15;;;;;;;12.50;4.03;;;17.50;99.90;;;;;;5020511;28;20088;-60
2022/08/20 03:20:41;;;;;;;10.63;3.92;;;17.50;99.90;;;;;;5020335;28;20045;-60
2022/08/20 03:23:07;;;;;;;6.75;3.28;;;17.40;99.90;;;;;;5019049;28;20045;-60
2022/08/20 03:25:33;;;;;;;7.72;3.42;;;17.40;99.90;;;;;;5019983;28;20045;-60
2022/08/20 03:28:00;;;;;;;9.07;3.28;;;17.50;99.90;;;;;;5020568;28;20041;-60
2022/08/20 03:30:28;;;;;;;7.70;3.03;;;17.40;99.90;;;;;;5019692;28;20057;-60
2022/08/20 03:32:54;;;;;;;7.90;3.40;;;17.40;99.90;;;;;;5020719;28;20045;-60
2022/08/20 03:35:24;;;;;;;9.82;3.45;;;17.40;99.90;;;;;;5019305;28;20054;-59
2022/08/20 03:37:50;;;;;;;9.98;3.53;;;17.40;99.90;;;;;;5019091;28;20049;-60
2022/08/20 03:40:21;;;;;;;5.70;3.15;;;17.40;99.90;;;;;;5020498;28;20045;-60
2022/08/20 03:42:47;;;;;;;11.77;3.50;;;17.40;99.90;;;;;;5022435;28;20049;-60
2022/08/20 03:45:13;;;;;;;10.82;3.30;;;17.40;99.90;;;;;;5009315;28;20049;-60
2022/08/20 03:47:41;;;;;;;10.75;3.90;;;17.50;99.90;;;;;;5024730;28;20527;-60
2022/08/20 03:50:09;;;;;;;8.48;3.50;;;17.40;99.90;;;;;;5022959;28;20099;-60
2022/08/20 03:52:36;;;;;;;9.48;3.80;;;17.40;99.90;;;;;;5024007;28;20080;-60
2022/08/20 03:55:02;;;;;;;8.52;3.83;;;17.40;99.90;;;;;;5024885;28;20526;-60
2022/08/20 03:57:28;;;;;;;10.73;4.15;;;17.30;99.90;;;;;;5023855;28;20124;-60
2022/08/20 03:59:54;;;;;;;7.40;3.50;;;17.30;99.90;;;;;;5024197;28;20034;-60
2022/08/20 04:02:20;;;;;;;12.13;3.55;;;17.30;99.90;;;;;;5023881;28;20046;-60
2022/08/20 04:04:46;;;;;;;10.77;4.00;;;17.20;99.90;;;;;;5024314;28;20034;-60
2022/08/20 04:07:24;;;;;;;10.57;3.78;;;17.20;99.90;;;;;;5023202;28;20049;-60
2022/08/20 04:09:54;;;;;;;8.90;3.45;;;17.20;99.90;;;;;;5024074;28;20052;-60
2022/08/20 04:12:22;;;;;;;11.30;3.20;;;17.10;99.90;;;;;;5025047;28;20102;-60
2022/08/20 04:14:48;;;;;;;7.22;3.03;;;17.10;99.90;;;;;;5024884;28;20507;-60
2022/08/20 04:17:16;;;;;;;9.68;3.88;;;17.10;99.90;;;;;;5022457;28;20084;-60
2022/08/20 04:19:43;;;;;;;5.18;3.13;;;17.10;99.90;;;;;;5021242;28;20082;-60
2022/08/20 04:22:10;;;;;;;8.07;3.28;;;17.00;99.90;;;;;;5022964;28;20072;-59
2022/08/20 04:24:36;;;;;;;10.77;3.40;;;17.00;99.90;;;;;;5024773;28;20057;-59
2022/08/20 04:27:03;;;;;;;9.52;3.55;;;17.00;99.90;;;;;;5038388;28;20404;-58
2022/08/20 04:29:32;;;;;;;8.63;3.35;;;17.00;99.90;;;;;;5022671;28;20057;-60
2022/08/20 04:31:59;;;;;;;9.43;3.50;;;16.90;99.90;;;;;;5021003;28;20053;-59
2022/08/20 04:34:25;;;;;;;7.68;3.33;;;16.90;99.90;;;;;;5021988;28;20049;-60
2022/08/20 04:36:51;;;;;;;11.07;3.65;;;16.80;99.90;;;;;;5022821;28;20100;-59
2022/08/20 04:39:17;;;;;;;13.55;4.55;;;16.80;99.90;;;;;;5023185;28;20037;-59
2022/08/20 04:41:43;;;;;;;9.73;3.40;;;16.70;99.90;;;;;;5006626;28;20117;-60
2022/08/20 04:44:10;;;;;;;7.40;3.08;;;16.70;99.90;;;;;;5021690;28;20041;-59
2022/08/20 04:46:37;;;;;;;7.93;3.10;;;16.60;99.90;;;;;;5022637;28;20061;-59
2022/08/20 04:49:04;;;;;;;9.82;3.25;;;16.60;99.90;;;;;;5022004;28;20128;-60
2022/08/20 04:51:31;;;;;;;9.95;3.85;;;16.60;99.90;;;;;;5022357;28;20064;-60
2022/08/20 04:53:57;;;;;;;6.90;3.20;;;16.60;99.90;;;;;;5022342;28;20045;-60
2022/08/20 04:56:26;;;;;;;6.75;3.30;;;16.60;99.90;;;;;;5019907;28;20080;-60
2022/08/20 04:58:53;;;;;;;9.48;3.28;;;16.60;99.90;;;;;;5020709;28;20464;-60
2022/08/20 05:01:22;;;;;;;8.68;3.83;;;16.60;99.90;;;;;;5021199;28;20037;-59
2022/08/20 05:03:49;;;;;;;8.18;3.40;;;16.60;99.90;;;;;;5023891;28;20064;-60
2022/08/20 05:06:16;;;;;;;7.97;3.63;;;16.50;99.90;;;;;;5021554;28;20053;-59
2022/08/20 05:08:43;;;;;;;9.65;3.55;;;16.50;99.90;;;;;;5036886;28;20164;-60
2022/08/20 05:11:09;;;;;;;7.75;3.47;;;16.50;99.90;;;;;;5004544;28;20054;-60
2022/08/20 05:13:35;;;;;;;9.10;3.55;;;16.50;99.90;;;;;;5021935;28;20081;-60
2022/08/20 05:16:03;;;;;;;6.88;2.80;;;16.50;99.90;;;;;;5021622;28;20117;-60
2022/08/20 05:18:33;;;;;;;6.90;3.30;;;16.50;99.90;;;;;;5020862;28;20060;-60
2022/08/20 05:21:06;;;;;;;6.97;3.42;;;16.50;99.90;;;;;;5022198;28;20111;-60
2022/08/20 05:23:35;;;;;;;9.65;3.13;;;16.40;99.90;;;;;;5021026;28;20041;-60
2022/08/20 05:26:06;;;;;;;7.35;2.97;;;16.40;99.90;;;;;;5023065;28;20412;-60
2022/08/20 05:28:33;;;;;;;8.73;2.90;;;16.40;99.90;;;;;;5021543;28;20124;-60
2022/08/20 05:31:00;;;;;;;7.80;2.95;;;16.40;99.90;;;;;;5022438;28;20112;-60
2022/08/20 05:33:28;;;;;;;8.25;3.55;;;16.40;99.90;;;;;;5023336;28;20063;-60
2022/08/20 05:35:55;;;;;;;9.93;3.50;;;16.30;99.90;;;;;;5004799;28;20399;-59
2022/08/20 05:38:25;;;;;;;6.70;3.00;;;16.40;99.90;;;;;;5020362;28;20053;-59
2022/08/20 05:40:51;;;;;;;10.38;3.90;;;16.30;99.90;;;;;;5019813;28;20042;-60
2022/08/20 05:43:18;;;;;;;8.05;3.42;;;16.30;99.90;;;;;;5022167;28;20042;-59
2022/08/20 05:45:45;;;;;;;9.23;3.47;;;16.30;99.90;;;;;;5021491;28;20042;-59
2022/08/20 05:48:16;;;;;;;9.63;3.25;;;16.30;99.90;;;;;;5021494;28;20050;-60
2022/08/20 05:50:44;;;;;;;11.55;3.75;;;16.20;99.90;;;;;;5020477;28;20132;-60
2022/08/20 05:53:11;;;;;;;7.60;3.10;;;16.20;99.90;;;;;;5018679;28;20057;-58
2022/08/20 05:55:38;;;;;;;8.32;3.72;;;16.20;99.90;;;;;;5021613;28;20045;-62
2022/08/20 05:58:07;;;;;;;9.07;3.47;;;16.30;99.90;;;;;;5021046;28;20042;-59
2022/08/20 06:00:34;;;;;;;9.25;3.53;;;16.30;99.90;;;;;;5022883;28;20150;-60
2022/08/20 06:05:45;;;;;;;8.38;3.10;;;16.30;99.90;;;;;;5020725;28;20533;-60
2022/08/20 06:08:11;;;;;;;10.73;3.50;;;16.40;99.90;;;;;;5020651;28;20057;-60
2022/08/20 06:10:39;;;;;;;15.27;3.70;;;16.40;99.90;;;;;;5020653;28;20080;-64
2022/08/20 06:13:06;;;;;;;12.68;3.35;;;16.50;99.90;;;;;;5021053;28;20103;-59
2022/08/20 06:15:34;;;;;;;9.73;3.30;;;16.50;99.90;;;;;;5021657;28;20041;-60
2022/08/20 06:18:00;;;;;;;9.32;2.90;;;16.60;99.90;;;;;;5022627;28;20050;-58
2022/08/20 06:20:27;;;;;;;8.57;2.80;;;16.70;99.90;;;;;;5019417;28;20045;-60
2022/08/20 06:22:54;;;;;;;11.90;3.40;;;16.70;99.90;;;;;;5021929;28;20435;-60
2022/08/20 06:25:20;;;;;;;10.43;2.67;;;16.80;99.90;;;;;;5021250;28;20475;-59
2022/08/20 06:27:46;;;;;;;10.30;2.72;;;16.80;99.90;;;;;;5018765;28;20049;-59
2022/08/20 06:30:14;;;;;;;8.60;2.65;;;16.90;99.90;;;;;;4988348;28;20060;-60
2022/08/20 06:32:39;;;;;;;8.98;2.60;;;17.00;99.90;;;;;;5019745;28;20049;-60
2022/08/20 06:35:08;;;;;;;14.13;2.85;;;17.10;99.90;;;;;;5021194;28;20054;-60
2022/08/20 06:37:35;;;;;;;11.23;2.30;;;17.20;99.90;;;;;;5020156;28;20037;-59
2022/08/20 06:40:06;;;;;;;7.55;2.42;;;17.20;99.90;;;;;;5022040;28;20033;-60
2022/08/20 06:42:31;;;;;;;11.40;2.42;;;17.30;99.90;;;;;;5020440;28;20048;-60
2022/08/20 06:44:59;;;;;;;6.70;2.20;;;17.40;99.90;;;;;;5020007;28;20476;-60
2022/08/20 06:47:25;;;;;;;7.82;2.33;;;17.50;99.90;;;;;;5018823;28;20691;-59
2022/08/20 06:49:50;;;;;;;7.72;2.00;;;17.50;99.90;;;;;;5019776;28;20087;-60
2022/08/20 06:52:16;;;;;;;7.82;2.30;;;17.60;99.90;;;;;;5019848;28;20131;-59
2022/08/20 06:54:45;;;;;;;8.77;2.50;;;17.70;99.90;;;;;;5019864;28;20496;-60
2022/08/20 06:57:11;;;;;;;7.53;2.08;;;17.80;99.90;;;;;;5020295;28;20664;-59
2022/08/20 06:59:37;;;;;;;7.10;2.50;;;17.80;99.90;;;;;;5019270;28;20045;-59
2022/08/20 07:02:04;;;;;;;9.13;2.60;;;17.90;99.90;;;;;;5033378;28;20091;-58
2022/08/20 07:04:30;;;;;;;7.63;2.10;;;18.00;99.90;;;;;;5018468;28;20636;-58
2022/08/20 07:06:56;;;;;;;12.63;2.22;;;18.10;99.90;;;;;;5021045;28;20110;-58
2022/08/20 07:09:25;;;;;;;6.90;1.88;;;18.10;99.90;;;;;;5020972;28;20045;-59
2022/08/20 07:11:51;;;;;;;8.57;2.00;;;18.20;99.90;;;;;;5020443;28;20129;-59
2022/08/20 07:14:17;;;;;;;6.05;1.85;;;18.30;99.90;;;;;;5017881;28;20053;-59
2022/08/20 07:16:46;;;;;;;7.43;2.22;;;18.40;99.90;;;;;;5018863;28;20049;-59
2022/08/20 07:19:12;;;;;;;7.57;1.80;;;18.50;99.90;;;;;;5020392;28;20049;-59
2022/08/20 07:21:38;;;;;;;7.88;1.83;;;18.60;99.90;;;;;;5035899;28;20480;-59
2022/08/20 07:24:05;;;;;;;8.77;1.98;;;18.70;99.90;;;;;;5020388;28;20095;-58
2022/08/20 07:26:31;;;;;;;9.90;1.92;;;18.80;99.90;;;;;;5019166;28;20060;-59
2022/08/20 07:28:57;;;;;;;8.55;1.70;;;18.90;99.90;;;;;;5020369;28;20727;-59
2022/08/20 07:34:10;;;;;;;5.70;1.55;;;19.10;99.90;;;;;;5021025;28;20522;-59
2022/08/20 07:36:36;;;;;;;9.73;1.50;;;19.10;99.90;;;;;;5020072;28;20458;-59
2022/08/20 07:39:02;;;;;;;9.68;1.70;;;19.30;99.90;;;;;;5034648;28;20049;-59
2022/08/20 07:41:28;;;;;;;8.15;1.60;;;19.30;99.90;;;;;;5018647;28;20848;-60
2022/08/20 07:43:53;;;;;;;7.90;1.50;;;19.40;99.90;;;;;;5020142;28;20034;-60
2022/08/20 07:46:20;;;;;;;7.20;1.40;;;19.50;99.90;;;;;;5020533;28;20044;-59
2022/08/20 07:48:48;;;;;;;7.15;1.70;;;19.60;99.90;;;;;;5004262;28;20094;-59
2022/08/20 07:51:16;;;;;;;8.55;1.40;;;19.60;99.90;;;;;;5018842;28;20069;-60
2022/08/20 07:53:45;;;;;;;7.45;1.58;;;19.70;99.80;;;;;;5019101;28;20110;-59
2022/08/20 07:56:14;;;;;;;6.93;1.52;;;19.80;99.60;;;;;;5016930;28;20049;-60
2022/08/20 07:58:48;;;;;;;6.22;1.50;;;19.80;99.20;;;;;;5020594;28;20648;-59
2022/08/20 08:01:19;;;;;;;6.22;1.88;;;19.90;98.80;;;;;;5020580;28;20053;-59
2022/08/20 08:03:46;;;;;;;4.97;1.20;;;20.00;98.80;;;;;;5022245;28;20061;-58
2022/08/20 08:06:12;;;;;;;6.35;1.45;;;20.10;98.50;;;;;;5017627;28;20045;-59
2022/08/20 08:08:39;;;;;;;6.65;1.67;;;20.20;98.10;;;;;;5019495;28;20049;-59
2022/08/20 08:11:05;;;;;;;6.28;1.77;;;20.30;98.00;;;;;;5018858;28;20050;-59
2022/08/20 08:13:35;;;;;;;6.30;1.60;;;20.40;97.90;;;;;;5020415;28;20128;-59
2022/08/20 08:16:07;;;;;;;5.15;1.50;;;20.50;97.60;;;;;;5019824;28;20439;-59
2022/08/20 08:18:48;;;;;;;7.50;1.45;;;20.70;97.60;;;;;;5019120;28;20042;-59
2022/08/20 08:21:16;;;;;;;10.95;2.10;;;20.80;97.00;;;;;;5019448;28;20172;-59
2022/08/20 08:23:43;;;;;;;6.13;1.48;;;20.80;96.40;;;;;;5018874;28;20561;-59
2022/08/20 08:26:14;;;;;;;7.65;1.75;;;20.90;96.00;;;;;;5017627;28;20054;-59
2022/08/20 08:28:43;;;;;;;5.47;1.52;;;21.00;96.10;;;;;;5020981;28;20396;-59
2022/08/20 08:31:10;;;;;;;7.00;1.80;;;21.20;95.90;;;;;;5022302;28;20077;-58
2022/08/20 08:33:37;;;;;;;8.55;1.52;;;21.30;95.10;;;;;;5023921;28;20513;-59
2022/08/20 08:36:08;;;;;;;6.15;1.60;;;21.40;94.50;;;;;;5005441;28;20143;-59
2022/08/20 08:38:36;;;;;;;7.40;1.45;;;21.40;94.20;;;;;;5023450;28;20132;-59
2022/08/20 08:41:18;;;;;;;5.05;1.60;;;21.60;94.40;;;;;;5023704;28;20076;-59
2022/08/20 08:43:54;;;;;;;8.70;1.87;;;21.70;94.30;;;;;;5020644;28;20495;-59
2022/08/20 08:46:24;;;;;;;8.38;1.45;;;21.90;94.10;;;;;;5023394;28;20049;-60
2022/08/20 08:48:54;;;;;;;9.20;1.95;;;22.00;93.20;;;;;;5021291;28;20053;-59
2022/08/20 08:51:26;;;;;;;7.88;1.60;;;22.10;93.20;;;;;;5022550;28;20065;-59
2022/08/20 08:53:53;;;;;;;;;;;22.20;93.30;;;;;;5024522;28;20072;-59
2022/08/20 08:56:29;;;;;;;9.40;1.58;;;22.30;93.50;;;;;;5022768;28;19928;-59
2022/08/20 08:59:00;;;;;;;4.57;1.20;;;22.40;92.20;;;;;;5021842;28;20059;-59
2022/08/20 09:01:27;;;;;;;4.63;1.48;;;22.50;91.30;;;;;;5023383;28;20114;-59
2022/08/20 09:03:53;;;;;;;6.70;1.63;;;22.60;91.60;;;;;;5038505;28;20049;-59
2022/08/20 09:06:22;;;;;;;5.72;1.40;;;22.70;91.40;;;;;;5021807;28;20475;-59
2022/08/20 09:08:59;;;;;;;6.63;1.60;;;22.90;90.90;;;;;;5022376;28;20049;-59
2022/08/20 09:11:27;;;;;;;8.52;1.40;;;23.00;90.30;;;;;;5023255;28;20057;-59
2022/08/20 09:13:53;;;;;;;7.80;1.52;;;23.10;89.60;;;;;;5023540;28;20048;-59
2022/08/20 09:16:21;;;;;;;3.88;1.50;;;23.00;88.80;;;;;;5020755;28;20049;-59
2022/08/20 09:18:48;;;;;;;7.95;1.60;;;22.90;89.00;;;;;;5025962;28;20541;-59
2022/08/20 09:21:13;;;;;;;8.27;1.83;;;22.80;89.10;;;;;;5019732;28;20247;-60
2022/08/20 09:23:40;;;;;;;7.30;1.65;;;22.70;89.00;;;;;;5021324;28;20049;-60
2022/08/20 09:26:06;;;;;;;7.40;1.40;;;22.70;89.40;;;;;;5020616;28;20495;-59
2022/08/20 09:28:32;;;;;;;8.20;2.10;;;22.90;88.70;;;;;;5024044;28;20049;-59
2022/08/20 09:30:58;;;;;;;4.65;1.50;;;23.00;87.30;;;;;;5023229;28;20053;-60
2022/08/20 09:33:24;;;;;;;5.22;1.40;;;23.00;86.00;;;;;;5021118;28;20045;-59
2022/08/20 09:35:50;;;;;;;8.95;2.00;;;23.10;85.60;;;;;;5019593;28;20045;-59
2022/08/20 09:38:16;;;;;;;7.80;1.58;;;23.20;85.60;;;;;;5022089;28;20050;-60
2022/08/20 09:40:43;;;;;;;4.85;1.30;;;23.10;85.90;;;;;;5004983;28;20450;-59
2022/08/20 09:43:09;;;;;;;5.57;1.40;;;23.00;86.00;;;;;;5021808;28;20135;-60
2022/08/20 09:45:35;;;;;;;6.88;1.50;;;22.90;85.40;;;;;;5020832;28;20060;-59
2022/08/20 09:48:01;;;;;;;5.30;1.50;;;22.90;84.80;;;;;;5019618;28;20139;-60
2022/08/20 09:50:30;;;;;;;7.18;1.60;;;23.00;83.20;;;;;;5020210;28;20045;-60
2022/08/20 09:52:58;;;;;;;9.15;1.80;;;23.00;82.90;;;;;;5020910;28;20143;-59
2022/08/20 09:55:27;;;;;;;5.10;1.65;;;23.00;82.50;;;;;;5020008;28;20095;-59
2022/08/20 09:57:53;;;;;;;6.00;1.70;;;23.20;82.30;;;;;;5022409;28;20110;-61
2022/08/20 10:00:19;;;;;;;7.82;1.58;;;23.50;81.50;;;;;;5022423;28;20049;-61
2022/08/20 10:02:46;;;;;;;6.28;1.42;;;23.50;80.90;;;;;;5020731;28;20144;-61
2022/08/20 10:05:12;;;;;;;6.65;1.35;;;23.60;80.20;;;;;;5019949;28;20045;-61
2022/08/20 10:07:39;;;;;;;6.68;1.50;;;23.70;79.10;;;;;;5036607;28;20547;-61
2022/08/20 10:10:08;;;;;;;3.70;1.10;;;23.70;78.50;;;;;;5021820;28;20053;-61
2022/08/20 10:12:34;;;;;;;6.60;1.55;;;23.70;78.40;;;;;;5021457;28;20051;-61
2022/08/20 10:15:00;;;;;;;6.30;1.23;;;23.90;78.20;;;;;;5020584;28;20037;-61
2022/08/20 10:17:26;;;;;;;3.92;1.20;;;24.10;78.60;;;;;;5020487;28;20050;-61
2022/08/20 10:19:52;;;;;;;5.70;1.15;;;24.30;78.60;;;;;;5021161;28;20052;-62
2022/08/20 10:22:17;;;;;;;6.72;1.40;;;24.50;76.40;;;;;;5022114;28;20042;-62
2022/08/20 10:24:43;;;;;;;4.72;1.50;;;24.60;75.00;;;;;;5019742;28;20231;-61
2022/08/20 10:27:09;;;;;;;4.95;1.35;;;24.80;75.00;;;;;;5021168;28;20126;-62
2022/08/20 10:29:35;;;;;;;4.03;1.40;;;24.80;73.70;;;;;;5003607;28;20181;-61
2022/08/20 10:32:13;;;;;;;6.82;1.60;;;24.80;72.60;;;;;;5003608;28;20053;-62
2022/08/20 10:34:41;;;;;;;5.72;1.58;;;24.70;73.10;;;;;;5020014;28;20050;-62
2022/08/20 10:37:09;;;;;;;9.43;1.70;;;24.80;72.30;;;;;;5021332;28;20045;-62
2022/08/20 10:39:35;;;;;;;5.38;1.52;;;24.70;71.80;;;;;;5020782;28;20733;-62
2022/08/20 10:42:01;;;;;;;6.47;1.50;;;24.60;72.50;;;;;;5018463;28;20053;-62
2022/08/20 10:44:27;;;;;;;9.27;1.77;;;24.50;72.30;;;;;;5018824;28;20088;-61
2022/08/20 10:46:52;;;;;;;6.60;1.90;;;24.40;71.60;;;;;;5019493;28;20113;-62
2022/08/20 10:49:18;;;;;;;9.18;1.98;;;24.40;72.30;;;;;;5019700;28;20057;-62
2022/08/20 10:51:44;;;;;;;6.03;1.92;;;24.30;72.60;;;;;;5020259;28;20656;-59
2022/08/20 10:54:10;;;;;;;12.60;2.17;;;24.30;73.10;;;;;;5019776;28;20136;-59
2022/08/20 10:56:35;;;;;;;5.30;1.80;;;24.20;73.30;;;;;;5019967;28;20041;-58
2022/08/20 10:59:01;;;;;;;8.52;2.10;;;24.10;73.80;;;;;;5020254;28;20049;-60
2022/08/20 11:01:27;;;;;;;9.32;1.80;;;24.10;74.30;;;;;;5021068;28;20045;-60
2022/08/20 11:03:53;;;;;;;6.55;1.90;;;24.10;73.60;;;;;;5020243;28;20644;-60
2022/08/20 11:06:19;;;;;;;5.75;1.55;;;24.30;74.10;;;;;;5019676;28;20029;-58
2022/08/20 11:08:45;;;;;;;10.85;1.77;;;24.70;74.50;;;;;;5019595;28;20517;-60
2022/08/20 11:11:10;;;;;;;6.47;1.70;;;25.00;73.70;;;;;;5022045;28;20507;-59
2022/08/20 11:13:36;;;;;;;8.48;1.98;;;25.40;73.60;;;;;;5020052;28;20045;-60
2022/08/20 11:16:03;;;;;;;6.82;1.58;;;25.60;71.90;;;;;;5019526;28;20116;-60
2022/08/20 11:18:30;;;;;;;5.70;1.65;;;25.60;69.60;;;;;;5019842;28;20061;-60
2022/08/20 11:20:56;;;;;;;6.00;1.60;;;25.40;68.00;;;;;;5017938;28;20064;-60
2022/08/20 11:23:22;;;;;;;7.35;1.70;;;25.40;67.70;;;;;;5019928;28;20396;-61
2022/08/20 11:25:48;;;;;;;5.13;1.63;;;25.30;68.20;;;;;;5019604;28;20044;-60
2022/08/20 11:28:14;;;;;;;5.70;1.70;;;25.30;68.00;;;;;;5020120;28;20054;-61
2022/08/20 11:30:40;;;;;;;8.00;1.42;;;25.30;67.70;;;;;;5020712;28;20053;-61
2022/08/20 11:33:06;;;;;;;5.20;1.80;;;25.40;68.10;;;;;;5019170;28;20049;-60
2022/08/20 11:35:35;;;;;;;9.20;1.77;;;25.50;68.90;;;;;;5019426;28;20048;-61
2022/08/20 11:38:01;;;;;;;5.47;1.60;;;25.70;68.20;;;;;;5020105;28;20507;-61
2022/08/20 11:40:29;;;;;;;8.50;1.95;;;25.90;67.50;;;;;;5020622;28;20495;-61
2022/08/20 11:42:55;;;;;;;7.85;1.70;;;26.20;67.30;;;;;;5019863;28;20107;-61
2022/08/20 11:45:21;;;;;;;5.00;1.42;;;26.60;67.00;;;;;;4996082;28;20041;-60
2022/08/20 11:47:47;;;;;;;8.18;1.80;;;26.70;64.80;;;;;;5013565;28;20172;-61
2022/08/20 11:50:18;;;;;;;5.90;1.40;;;26.40;63.80;;;;;;5017055;28;20160;-63
2022/08/20 11:52:44;;;;;;;6.93;1.40;;;26.20;64.60;;;;;;5017409;28;20084;-61
2022/08/20 11:55:13;;;;;;;6.28;1.60;;;26.00;66.00;;;;;;5017511;28;20121;-63
2022/08/20 11:57:45;;;;;;;6.82;1.80;;;25.80;65.70;;;;;;5013689;28;20037;-62
2022/08/20 12:00:16;;;;;;;7.95;2.03;;;25.60;65.50;;;;;;5011571;28;20049;-63
2022/08/20 12:02:42;;;;;;;9.40;2.13;;;25.40;65.60;;;;;;5010134;28;20053;-64
2022/08/20 12:05:10;;;;;;;12.00;1.80;;;25.20;65.70;;;;;;5029967;28;21988;-64
2022/08/20 12:07:42;;;;;;;12.10;1.88;;;25.30;65.70;;;;;;4999468;28;20057;-64
2022/08/20 12:10:08;;;;;;;7.60;1.80;;;25.40;65.70;;;;;;5030755;28;20119;-63
2022/08/20 12:12:36;;;;;;;10.57;1.73;;;25.60;64.80;;;;;;5016268;28;20064;-64
2022/08/20 12:15:03;;;;;;;5.45;1.52;;;25.90;64.50;;;;;;5010931;28;20045;-62
2022/08/20 12:17:31;;;;;;;11.02;2.10;;;26.20;64.00;;;;;;5011804;28;20041;-63
2022/08/20 12:20:00;;;;;;;14.25;2.20;;;26.60;63.70;;;;;;5012429;28;20333;-61
2022/08/20 12:22:26;;;;;;;7.05;1.50;;;26.90;63.40;;;;;;5015889;28;20068;-63
2022/08/20 12:24:55;;;;;;;5.07;1.50;;;27.20;64.00;;;;;;4996535;28;20038;-65
2022/08/20 12:27:26;;;;;;;4.90;1.58;;;27.30;62.30;;;;;;4997478;28;20081;-64
2022/08/20 12:29:54;;;;;;;6.97;2.05;;;27.30;61.80;;;;;;4981064;28;20051;-64
2022/08/20 12:32:22;;;;;;;6.25;1.70;;;27.20;61.10;;;;;;5018005;28;20292;-63
2022/08/20 12:34:48;;;;;;;10.68;1.77;;;27.10;60.90;;;;;;5013970;28;20051;-63
2022/08/20 12:37:17;;;;;;;3.22;1.63;;;27.20;61.70;;;;;;5011965;28;20049;-61
2022/08/20 12:39:45;;;;;;;9.30;1.98;;;27.30;60.30;;;;;;5013210;28;20111;-62
2022/08/20 12:42:13;;;;;;;21.05;2.65;;;27.30;59.70;;;;;;5011599;28;20101;-66
2022/08/20 12:44:39;;;;;;;14.05;2.00;;;27.30;60.60;;;;;;5013868;28;20045;-63
2022/08/20 12:47:20;;;;;;;9.88;1.50;;;27.30;60.80;;;;;;5011858;28;20654;-63
2022/08/20 12:49:49;;;;;;;4.15;1.50;;;27.30;61.60;;;;;;5011965;28;20049;-64
2022/08/20 12:52:16;;;;;;;7.25;1.60;;;27.40;61.00;;;;;;5013080;28;20528;-63